createdAt,value
2019-02-22T06:51:29.388Z,46.29
2019-02-22T06:54:00.447Z,45.83
2019-02-22T06:56:32.065Z,45.67
2019-02-22T06:59:02.708Z,45.73
2019-02-22T07:01:34.986Z,45.71
2019-02-22T07:04:05.811Z,45.92
2019-02-22T07:06:38.082Z,45.98
2019-02-22T07:09:09.020Z,46.27
2019-02-22T07:11:41.288Z,45.96
2019-02-22T07:14:13.770Z,45.69
2019-02-22T07:16:45.211Z,46.91
2019-02-22T07:19:15.940Z,46.37
2019-02-22T07:21:52.718Z,46.05
2019-02-22T07:24:20.787Z,45.20
2019-02-22T07:26:51.219Z,45.57
2019-02-22T07:29:22.329Z,45.66
2019-02-22T07:31:52.982Z,45.96
2019-02-22T07:34:23.919Z,45.48
2019-02-22T07:36:54.855Z,45.93
2019-02-22T07:39:28.084Z,46.02
2019-02-22T07:41:58.922Z,44.80
2019-02-22T07:44:29.410Z,44.64
2019-02-22T07:47:00.349Z,43.08
2019-02-22T07:49:34.232Z,43.50
2019-02-22T07:52:04.785Z,43.50
2019-02-22T07:54:36.613Z,43.15
2019-02-22T07:57:06.880Z,41.85
2019-02-22T07:59:37.393Z,42.34
2019-02-22T08:02:08.034Z,41.67
2019-02-22T08:04:40.278Z,41.94
2019-02-22T08:07:11.334Z,42.13
2019-02-22T08:09:42.810Z,42.71
2019-02-22T08:12:14.915Z,41.75
2019-02-22T08:14:45.986Z,41.41
2019-02-22T08:17:18.736Z,41.25
2019-02-22T08:19:50.016Z,41.37
2019-02-22T08:22:21.087Z,41.05
2019-02-22T08:24:55.122Z,41.26
2019-02-22T08:27:26.204Z,41.64
2019-02-22T08:29:59.607Z,41.85
2019-02-22T08:32:30.121Z,41.52
2019-02-22T08:35:00.995Z,40.06
2019-02-22T08:37:33.738Z,40.36
2019-02-22T08:40:05.966Z,40.42
2019-02-22T08:42:36.124Z,41.05
2019-02-22T08:45:09.695Z,40.73
2019-02-22T08:47:41.452Z,41.52
2019-02-22T08:50:14.348Z,41.01
2019-02-22T08:52:43.971Z,41.08
2019-02-22T08:55:15.011Z,41.45
2019-02-22T08:57:46.255Z,40.42
2019-02-22T09:00:17.804Z,40.96
2019-02-22T09:02:48.393Z,40.40
2019-02-22T09:05:20.560Z,41.54
2019-02-22T09:07:50.926Z,41.67
2019-02-22T09:10:21.658Z,41.75
2019-02-22T09:12:53.311Z,40.44
2019-02-22T09:15:24.255Z,41.11
2019-02-22T09:17:56.884Z,40.62
2019-02-22T09:20:27.363Z,40.56
2019-02-22T09:22:58.291Z,41.39
2019-02-22T09:25:29.854Z,41.29
2019-02-22T09:28:02.416Z,41.13
2019-02-22T09:30:33.054Z,40.68
2019-02-22T09:33:04.709Z,39.70
2019-02-22T09:35:36.943Z,39.15
2019-02-22T09:38:13.436Z,39.59
2019-02-22T09:40:43.861Z,39.63
2019-02-22T09:43:14.493Z,39.45
2019-02-22T09:45:45.533Z,40.08
2019-02-22T09:48:18.546Z,39.65
2019-02-22T09:50:49.253Z,39.33
2019-02-22T09:53:20.185Z,38.51
2019-02-22T09:55:50.743Z,38.42
2019-02-22T09:58:21.346Z,39.49
2019-02-22T10:00:56.915Z,39.29
2019-02-22T10:03:27.323Z,38.81
2019-02-22T10:05:58.458Z,38.86
2019-02-22T10:08:30.015Z,38.29
2019-02-22T10:11:00.641Z,39.00
2019-02-22T10:13:31.375Z,38.79
2019-02-22T10:16:01.901Z,38.94
2019-02-22T10:18:33.042Z,39.49
2019-02-22T10:21:03.540Z,39.27
2019-02-22T10:23:34.301Z,39.38
2019-02-22T10:26:05.256Z,38.54
2019-02-22T10:28:35.809Z,38.92
2019-02-22T10:31:07.320Z,38.81
2019-02-22T10:33:40.316Z,38.49
2019-02-22T10:36:11.145Z,39.29
2019-02-22T10:38:42.076Z,40.17
2019-02-22T10:41:13.938Z,39.44
2019-02-22T10:43:44.270Z,38.67
2019-02-22T10:46:14.891Z,38.04
2019-02-22T10:48:48.698Z,39.00
2019-02-22T10:51:19.247Z,38.86
2019-02-22T10:53:50.365Z,39.39
2019-02-22T10:56:22.116Z,39.84
2019-02-22T10:58:52.753Z,39.52
2019-02-22T11:01:24.518Z,39.47
2019-02-22T11:03:54.934Z,39.40
2019-02-22T11:06:25.701Z,39.92
2019-02-22T11:08:56.331Z,40.89
2019-02-22T11:11:26.836Z,40.66
2019-02-22T11:13:57.564Z,40.57
2019-02-22T11:16:30.130Z,40.54
2019-02-22T11:19:02.312Z,40.49
2019-02-22T11:21:33.544Z,39.89
2019-02-22T11:24:05.443Z,40.12
2019-02-22T11:26:37.568Z,40.11
2019-02-22T11:29:08.008Z,40.20
2019-02-22T11:31:41.199Z,39.91
2019-02-22T11:34:11.716Z,40.59
2019-02-22T11:36:42.865Z,41.06
2019-02-22T11:39:15.459Z,41.42
2019-02-22T11:41:47.111Z,41.88
2019-02-22T11:44:17.273Z,41.91
2019-02-22T11:46:53.381Z,41.94
2019-02-22T11:49:25.850Z,42.08
2019-02-22T11:51:57.290Z,42.19
2019-02-22T11:54:29.148Z,42.07
2019-02-22T11:57:01.643Z,42.20
2019-02-22T11:59:34.847Z,42.29
2019-02-22T12:02:06.360Z,43.79
2019-02-22T12:04:37.091Z,41.94
2019-02-22T12:07:07.822Z,42.08
2019-02-22T12:09:39.174Z,42.30
2019-02-22T12:12:12.260Z,42.58
2019-02-22T12:14:51.038Z,42.71
2019-02-22T12:17:17.714Z,42.03
2019-02-22T12:19:48.548Z,41.46
2019-02-22T12:22:20.296Z,41.55
2019-02-22T12:24:50.871Z,41.76
2019-02-22T12:27:22.805Z,42.09
2019-02-22T12:29:57.457Z,42.54
2019-02-22T12:32:31.322Z,42.62
2019-02-22T12:35:01.773Z,43.22
2019-02-22T12:37:33.917Z,42.87
2019-02-22T12:40:04.765Z,43.29
2019-02-22T12:42:36.713Z,44.05
2019-02-22T12:45:09.906Z,44.38
2019-02-22T12:47:41.495Z,44.66
2019-02-22T12:50:12.699Z,45.24
2019-02-22T12:52:44.051Z,45.54
2019-02-22T12:55:14.677Z,45.36
2019-02-22T12:57:45.073Z,45.66
2019-02-22T13:00:18.602Z,45.79
2019-02-22T13:02:49.030Z,45.69
2019-02-22T13:05:29.591Z,46.13
2019-02-22T13:08:01.254Z,46.43
2019-02-22T13:10:32.076Z,47.01
2019-02-22T13:13:04.762Z,47.28
2019-02-22T13:15:36.205Z,46.67
2019-02-22T13:18:06.835Z,46.78
2019-02-22T13:20:37.670Z,46.90
2019-02-22T13:23:08.915Z,46.91
2019-02-22T13:25:42.986Z,47.74
2019-02-22T13:28:14.387Z,48.28
2019-02-22T13:30:45.107Z,48.44
2019-02-22T13:33:15.838Z,49.51
2019-02-22T13:35:47.561Z,49.96
2019-02-22T13:38:18.328Z,50.17
2019-02-22T13:40:49.906Z,50.56
2019-02-22T13:43:21.541Z,51.17
2019-02-22T13:45:51.857Z,52.86
2019-02-22T13:48:25.745Z,54.66
2019-02-22T13:50:57.172Z,55.26
2019-02-22T13:53:27.742Z,56.36
2019-02-22T13:56:00.350Z,56.50
2019-02-22T13:58:33.278Z,56.41
2019-02-22T14:01:03.725Z,57.39
2019-02-22T14:03:34.766Z,58.19
2019-02-22T14:06:05.290Z,57.14
2019-02-22T14:08:36.033Z,57.66
2019-02-22T14:11:07.886Z,57.46
2019-02-22T14:13:38.619Z,57.74
2019-02-22T14:16:13.552Z,58.53
2019-02-22T14:18:44.322Z,57.12
2019-02-22T14:21:16.368Z,56.84
2019-02-22T14:23:46.747Z,57.14
2019-02-22T14:26:18.730Z,57.40
2019-02-22T14:28:49.362Z,57.42
2019-02-22T14:31:21.323Z,56.71
2019-02-22T14:33:52.015Z,56.29
2019-02-22T14:36:33.234Z,55.98
2019-02-22T14:39:22.135Z,54.77
2019-02-22T14:41:53.631Z,54.50
2019-02-22T14:44:26.877Z,52.40
2019-02-22T14:46:57.565Z,51.52
2019-02-22T14:49:29.427Z,51.03
2019-02-22T14:52:02.640Z,50.73
2019-02-22T14:54:33.348Z,50.05
2019-02-22T14:57:05.629Z,49.88
2019-02-22T14:59:36.456Z,49.41
2019-02-22T15:02:07.600Z,47.92
2019-02-22T15:04:38.322Z,48.08
2019-02-22T15:07:09.056Z,47.45
2019-02-22T15:09:40.095Z,47.40
2019-02-22T15:12:12.967Z,47.57
2019-02-22T15:14:43.610Z,48.24
2019-02-22T15:17:21.813Z,47.70
2019-02-22T15:19:52.411Z,47.67
2019-02-22T15:22:23.490Z,48.01
2019-02-22T15:24:54.627Z,47.70
2019-02-22T15:27:25.258Z,47.25
2019-02-22T15:29:57.392Z,47.70
2019-02-22T15:32:28.259Z,47.90
2019-02-22T15:34:58.888Z,47.80
2019-02-22T15:37:29.734Z,47.70
2019-02-22T15:40:00.894Z,47.84
2019-02-22T15:42:31.600Z,48.05
2019-02-22T15:45:02.845Z,48.11
2019-02-22T15:47:34.312Z,48.28
2019-02-22T15:50:07.996Z,49.32
2019-02-22T15:52:39.659Z,50.09
2019-02-22T15:55:10.484Z,50.74
2019-02-22T15:57:41.202Z,50.42
2019-02-22T16:00:32.636Z,50.39
2019-02-22T16:03:03.401Z,50.81
2019-02-22T16:05:40.758Z,50.75
2019-02-22T16:08:10.977Z,50.30
2019-02-22T16:10:42.114Z,50.20
2019-02-22T16:13:12.822Z,50.39
2019-02-22T16:15:44.318Z,51.13
2019-02-22T16:18:15.746Z,51.34
2019-02-22T16:20:46.582Z,51.49
2019-02-22T16:23:19.058Z,51.65
2019-02-22T16:25:49.824Z,52.19
2019-02-22T16:28:21.033Z,52.71
2019-02-22T16:30:52.985Z,52.61
2019-02-22T16:33:23.549Z,52.24
2019-02-22T16:35:54.699Z,51.31
2019-02-22T16:38:25.906Z,50.54
2019-02-22T16:40:57.870Z,50.32
2019-02-22T16:43:29.385Z,50.58
2019-02-22T16:46:00.055Z,50.51
2019-02-22T16:48:32.408Z,50.60
2019-02-22T16:51:05.020Z,50.52
2019-02-22T16:53:36.448Z,50.83
2019-02-22T16:56:06.773Z,51.26
2019-02-22T16:58:37.289Z,50.85
2019-02-22T17:01:08.852Z,50.12
2019-02-22T17:03:41.302Z,49.72
2019-02-22T17:06:12.465Z,50.14
2019-02-22T17:08:43.096Z,50.85
2019-02-22T17:11:14.953Z,51.93
2019-02-22T17:13:47.212Z,52.75
2019-02-22T17:16:19.287Z,52.91
2019-02-22T17:18:49.919Z,53.03
2019-02-22T17:21:20.833Z,52.44
2019-02-22T17:23:53.189Z,52.54
2019-02-22T17:26:25.186Z,53.19
2019-02-22T17:28:56.941Z,52.86
2019-02-22T17:31:29.212Z,52.23
2019-02-22T17:34:01.588Z,51.92
2019-02-22T17:36:32.520Z,51.66
2019-02-22T17:39:03.819Z,51.96
2019-02-22T17:41:35.824Z,51.22
2019-02-22T17:44:06.767Z,50.61
2019-02-22T17:46:37.619Z,50.37
2019-02-22T17:49:10.278Z,49.11
2019-02-22T17:51:41.219Z,48.15
2019-02-22T17:54:13.583Z,48.24
2019-02-22T17:56:44.319Z,48.26
2019-02-22T17:59:15.048Z,47.82
2019-02-22T18:01:46.198Z,48.29
2019-02-22T18:04:17.040Z,48.58
2019-02-22T18:06:47.872Z,48.71
2019-02-22T18:09:19.516Z,49.17
2019-02-22T18:11:50.661Z,49.47
2019-02-22T18:14:21.599Z,48.99
2019-02-22T18:16:52.229Z,49.60
2019-02-22T18:19:23.685Z,49.20
2019-02-22T18:21:54.511Z,49.25
2019-02-22T18:24:25.862Z,49.68
2019-02-22T18:26:57.406Z,49.39
2019-02-22T18:29:35.140Z,50.02
2019-02-22T18:32:01.849Z,49.95
2019-02-22T18:34:32.528Z,50.23
2019-02-22T18:37:03.002Z,50.64
2019-02-22T18:39:33.634Z,50.61
2019-02-22T18:42:06.622Z,51.03
2019-02-22T18:44:37.352Z,51.76
2019-02-22T18:47:18.827Z,52.23
2019-02-22T18:49:40.672Z,52.24
2019-02-22T18:52:11.720Z,52.01
2019-02-22T18:54:43.231Z,51.88
2019-02-22T18:57:14.611Z,52.24
2019-02-22T18:59:45.328Z,51.28
2019-02-22T19:02:15.963Z,50.21
2019-02-22T19:04:48.860Z,49.62
2019-02-22T19:07:19.372Z,48.01
2019-02-22T19:09:51.128Z,47.11
2019-02-22T19:12:21.711Z,46.55
2019-02-22T19:14:52.384Z,46.06
2019-02-22T19:17:30.444Z,46.04
2019-02-22T19:19:58.622Z,45.87
2019-02-22T19:22:29.295Z,46.36
2019-02-22T19:25:00.830Z,46.03
2019-02-22T19:27:31.882Z,45.78
2019-02-22T19:30:02.614Z,45.95
2019-02-22T19:32:33.247Z,46.14
2019-02-22T19:35:04.287Z,45.99
2019-02-22T19:37:35.737Z,45.94
2019-02-22T19:40:24.677Z,45.79
2019-02-22T19:42:51.234Z,46.17
2019-02-22T19:48:29.200Z,46.41
2019-02-22T19:50:59.683Z,46.69
2019-02-22T19:53:30.110Z,46.69
2019-02-22T19:56:04.115Z,47.17
2019-02-22T19:58:34.501Z,47.37
2019-02-22T20:01:06.295Z,47.75
2019-02-22T20:03:36.924Z,47.71
2019-02-22T20:06:10.025Z,47.81
2019-02-22T20:08:42.425Z,48.03
2019-02-22T20:11:16.290Z,48.51
2019-02-22T20:13:47.433Z,49.26
2019-02-22T20:16:18.063Z,49.80
2019-02-22T20:18:49.533Z,50.46
2019-02-22T20:21:20.652Z,50.75
2019-02-22T20:23:53.533Z,51.16
2019-02-22T20:26:24.681Z,51.70
2019-02-22T20:28:58.177Z,52.39
2019-02-22T20:31:29.321Z,52.75
2019-02-22T20:33:59.974Z,52.98
2019-02-22T20:36:31.806Z,53.28
2019-02-22T20:39:05.816Z,53.38
2019-02-22T20:41:36.957Z,53.77
2019-02-22T20:44:10.969Z,53.93
2019-02-22T20:46:42.551Z,54.40
2019-02-22T20:49:13.904Z,54.68
2019-02-22T20:51:46.645Z,54.63
2019-02-22T20:54:20.245Z,54.81
2019-02-22T20:56:51.286Z,55.28
2019-02-22T20:59:22.329Z,55.00
2019-02-22T21:01:53.911Z,55.47
2019-02-22T21:04:24.617Z,55.41
2019-02-22T21:06:55.343Z,55.36
2019-02-22T21:09:26.211Z,55.47
2019-02-22T21:11:57.935Z,56.05
2019-02-22T21:14:29.178Z,55.93
2019-02-22T21:17:00.315Z,56.12
2019-02-22T21:19:31.781Z,56.81
2019-02-22T21:22:03.011Z,56.84
2019-02-22T21:24:34.258Z,57.37
2019-02-22T21:27:05.911Z,57.20
2019-02-22T21:29:39.041Z,57.39
2019-02-22T21:32:09.424Z,57.83
2019-02-22T21:34:39.629Z,58.13
2019-02-22T21:37:10.141Z,58.25
2019-02-22T21:39:42.342Z,58.01
2019-02-22T21:42:20.139Z,57.85
2019-02-22T21:44:46.157Z,57.75
2019-02-22T21:47:16.787Z,57.88
2019-02-22T21:49:48.242Z,58.00
2019-02-22T21:52:18.971Z,57.71
2019-02-22T21:54:49.598Z,57.90
2019-02-22T21:57:20.334Z,57.87
2019-02-22T21:59:51.306Z,57.88
2019-02-22T22:02:23.443Z,58.18
2019-02-22T22:04:54.989Z,58.15
2019-02-22T22:07:26.545Z,58.32
2019-02-22T22:09:57.842Z,58.64
2019-02-22T22:12:28.759Z,58.87
2019-02-22T22:15:00.788Z,59.04
2019-02-22T22:17:31.514Z,59.27
2019-02-22T22:20:06.182Z,59.49
2019-02-22T22:22:39.025Z,58.88
2019-02-22T22:25:13.030Z,59.16
2019-02-22T22:27:42.778Z,59.38
2019-02-22T22:30:15.130Z,59.66
2019-02-22T22:32:45.543Z,60.11
2019-02-22T22:35:17.301Z,60.30
2019-02-22T22:37:48.030Z,60.29
2019-02-22T22:40:18.352Z,60.58
2019-02-22T22:42:49.596Z,61.02
2019-02-22T22:45:20.501Z,61.18
2019-02-22T22:47:51.985Z,61.32
2019-02-22T22:50:22.539Z,61.21
2019-02-22T22:52:53.862Z,61.65
2019-02-22T22:55:24.998Z,61.82
2019-02-22T22:57:56.116Z,62.12
2019-02-22T23:00:47.765Z,62.52
2019-02-22T23:03:19.514Z,62.54
2019-02-22T23:05:49.945Z,62.69
2019-02-22T23:08:20.673Z,62.99
2019-02-22T23:10:51.305Z,63.10
2019-02-22T23:13:22.872Z,63.05
2019-02-22T23:15:53.696Z,63.26
2019-02-22T23:18:26.123Z,63.32
2019-02-22T23:20:56.998Z,63.57
2019-02-22T23:23:27.526Z,63.67
2019-02-22T23:25:58.875Z,64.12
2019-02-22T23:28:29.609Z,64.27
2019-02-22T23:31:01.363Z,64.53
2019-02-22T23:33:32.509Z,64.36
2019-02-22T23:36:03.135Z,64.58
2019-02-22T23:38:34.587Z,64.79
2019-02-22T23:41:05.869Z,65.25
2019-02-22T23:43:37.481Z,65.50
2019-02-22T23:46:09.468Z,65.83
2019-02-22T23:48:39.873Z,65.81
2019-02-22T23:51:10.501Z,65.72
2019-02-22T23:53:44.003Z,65.90
2019-02-22T23:56:14.636Z,66.10
2019-02-22T23:58:47.820Z,66.55
